LPE2184 SPJC-SPHO
Flight info
| Callsign | LPE2184 |
|---|---|
| Flight time | 0h 35m |
| Altitude | 29000 |
| Route | PAKOL UM668 POVLO |
| Aircraft | A319/M-SDE3FGHIRWY/LB1 |
Departure
| Time | 2026-05-04 15:56 |
|---|---|
| Airport | Jorge Chávez International Airport (SPJC) |
Arrival
| Time | 2026-05-04 16:31 |
|---|---|
| Airport | Air Force Colonel Alfredo Mendivil Duarte Airport (SPHO) |
| Time | Latitude | Longitude | Altitude | Speed | Heading |
|---|---|---|---|---|---|
| 2026-05-04 15:39 | -12.02770 | -77.11471 | 81 ft | 0 kts | 244° |
| 2026-05-04 15:46 | -12.02762 | -77.11454 | 104 ft | 4 kts | 244° |
| 2026-05-04 15:46 | -12.02753 | -77.11429 | 78 ft | 4 kts | 271° |
| 2026-05-04 15:47 | -12.02761 | -77.11407 | 84 ft | 4 kts | 327° |
| 2026-05-04 15:47 | -12.02771 | -77.11401 | 83 ft | 1 kts | 334° |
| 2026-05-04 15:50 | -12.02771 | -77.11402 | 83 ft | 1 kts | 334° |
| 2026-05-04 15:50 | -12.02757 | -77.11408 | 86 ft | 3 kts | 334° |
| 2026-05-04 15:51 | -12.02729 | -77.11422 | 84 ft | 6 kts | 334° |
| 2026-05-04 15:51 | -12.02687 | -77.11443 | 82 ft | 8 kts | 334° |
| 2026-05-04 15:51 | -12.02627 | -77.11472 | 83 ft | 11 kts | 334° |
| 2026-05-04 15:51 | -12.02550 | -77.11510 | 81 ft | 14 kts | 334° |
| 2026-05-04 15:52 | -12.02453 | -77.11558 | 80 ft | 17 kts | 334° |
| 2026-05-04 15:52 | -12.02337 | -77.11616 | 81 ft | 20 kts | 334° |
| 2026-05-04 15:52 | -12.02196 | -77.11685 | 72 ft | 25 kts | 334° |
| 2026-05-04 15:52 | -12.02031 | -77.11765 | 67 ft | 19 kts | 334° |
| 2026-05-04 15:53 | -12.01919 | -77.11790 | 68 ft | 15 kts | 44° |
| 2026-05-04 15:53 | -12.01865 | -77.11766 | 66 ft | 14 kts | 342° |
| 2026-05-04 15:53 | -12.01764 | -77.11816 | 64 ft | 18 kts | 334° |
| 2026-05-04 15:53 | -12.01641 | -77.11879 | 62 ft | 21 kts | 333° |
| 2026-05-04 15:54 | -12.01500 | -77.11952 | 61 ft | 25 kts | 333° |
| 2026-05-04 15:54 | -12.01341 | -77.12030 | 56 ft | 23 kts | 334° |
| 2026-05-04 15:54 | -12.01215 | -77.12153 | 53 ft | 29 kts | 319° |
| 2026-05-04 15:54 | -12.01041 | -77.12245 | 53 ft | 27 kts | 334° |
| 2026-05-04 15:55 | -12.00882 | -77.12315 | 51 ft | 20 kts | 357° |
| 2026-05-04 15:55 | -12.00805 | -77.12198 | 49 ft | 23 kts | 63° |
| 2026-05-04 15:55 | -12.00869 | -77.12084 | 52 ft | 29 kts | 152° |
| 2026-05-04 15:55 | -12.01244 | -77.11899 | 57 ft | 91 kts | 154° |
| 2026-05-04 15:56 | -12.01979 | -77.11539 | 68 ft | 144 kts | 155° |
| 2026-05-04 15:56 | -12.02989 | -77.11037 | 408 ft | 159 kts | 156° |
| 2026-05-04 15:56 | -12.03981 | -77.10549 | 1051 ft | 158 kts | 156° |
| 2026-05-04 15:56 | -12.05009 | -77.10044 | 1522 ft | 174 kts | 156° |
| 2026-05-04 15:57 | -12.06170 | -77.09474 | 1822 ft | 196 kts | 155° |
| 2026-05-04 15:57 | -12.07484 | -77.08828 | 2154 ft | 222 kts | 155° |
| 2026-05-04 15:57 | -12.08952 | -77.08103 | 2637 ft | 246 kts | 154° |
| 2026-05-04 15:57 | -12.10561 | -77.07305 | 3289 ft | 264 kts | 154° |
| 2026-05-04 15:58 | -12.12251 | -77.06465 | 4090 ft | 274 kts | 154° |
| 2026-05-04 15:58 | -12.13988 | -77.05606 | 4986 ft | 280 kts | 154° |
| 2026-05-04 15:58 | -12.15764 | -77.04730 | 5680 ft | 287 kts | 154° |
| 2026-05-04 15:58 | -12.17556 | -77.03846 | 6315 ft | 290 kts | 154° |
| 2026-05-04 15:59 | -12.19377 | -77.02947 | 7167 ft | 292 kts | 154° |
| 2026-05-04 15:59 | -12.21212 | -77.02041 | 7993 ft | 294 kts | 154° |
| 2026-05-04 15:59 | -12.23015 | -77.01033 | 8681 ft | 298 kts | 144° |
| 2026-05-04 15:59 | -12.24520 | -76.99582 | 8944 ft | 299 kts | 127° |
| 2026-05-04 16:00 | -12.25557 | -76.97740 | 9704 ft | 300 kts | 115° |
| 2026-05-04 16:00 | -12.26467 | -76.95807 | 10294 ft | 309 kts | 116° |
| 2026-05-04 16:00 | -12.27451 | -76.93765 | 10532 ft | 329 kts | 116° |
| 2026-05-04 16:00 | -12.28486 | -76.91639 | 11049 ft | 337 kts | 116° |
| 2026-05-04 16:01 | -12.29536 | -76.89486 | 11686 ft | 340 kts | 116° |
| 2026-05-04 16:01 | -12.30592 | -76.87316 | 12347 ft | 342 kts | 116° |
| 2026-05-04 16:01 | -12.31653 | -76.85125 | 12951 ft | 346 kts | 116° |
| 2026-05-04 16:01 | -12.32714 | -76.82928 | 13561 ft | 349 kts | 116° |
| 2026-05-04 16:02 | -12.33798 | -76.80680 | 14193 ft | 352 kts | 115° |
| 2026-05-04 16:02 | -12.34879 | -76.78440 | 14797 ft | 354 kts | 115° |
| 2026-05-04 16:02 | -12.37072 | -76.73890 | 15896 ft | 358 kts | 115° |
| 2026-05-04 16:03 | -12.38178 | -76.71594 | 16467 ft | 360 kts | 115° |
| 2026-05-04 16:03 | -12.39286 | -76.69292 | 17032 ft | 362 kts | 115° |
| 2026-05-04 16:03 | -12.40401 | -76.66974 | 17604 ft | 364 kts | 115° |
| 2026-05-04 16:03 | -12.41521 | -76.64641 | 18225 ft | 366 kts | 115° |
| 2026-05-04 16:04 | -12.42649 | -76.62297 | 18735 ft | 369 kts | 115° |
| 2026-05-04 16:04 | -12.44930 | -76.57583 | 19577 ft | 376 kts | 115° |
| 2026-05-04 16:04 | -12.46098 | -76.55179 | 20048 ft | 379 kts | 115° |
| 2026-05-04 16:05 | -12.47279 | -76.52750 | 20498 ft | 383 kts | 115° |
| 2026-05-04 16:05 | -12.48468 | -76.50300 | 21000 ft | 386 kts | 115° |
| 2026-05-04 16:05 | -12.50867 | -76.45337 | 21900 ft | 392 kts | 115° |
| 2026-05-04 16:06 | -12.52085 | -76.42815 | 22323 ft | 396 kts | 115° |
| 2026-05-04 16:06 | -12.55360 | -76.36033 | 23469 ft | 403 kts | 115° |
| 2026-05-04 16:07 | -12.57034 | -76.32571 | 23969 ft | 408 kts | 115° |
| 2026-05-04 16:07 | -12.60854 | -76.24683 | 24988 ft | 417 kts | 115° |
| 2026-05-04 16:08 | -12.62143 | -76.22013 | 25317 ft | 420 kts | 115° |
| 2026-05-04 16:08 | -12.66070 | -76.13886 | 26329 ft | 428 kts | 115° |
| 2026-05-04 16:09 | -12.68701 | -76.08429 | 27042 ft | 433 kts | 115° |
| 2026-05-04 16:09 | -12.71382 | -76.02864 | 27695 ft | 438 kts | 115° |
| 2026-05-04 16:10 | -12.74061 | -75.97209 | 28348 ft | 444 kts | 111° |
| 2026-05-04 16:11 | -12.76474 | -75.87991 | 29181 ft | 451 kts | 102° |
| 2026-05-04 16:11 | -12.77200 | -75.84892 | 29233 ft | 441 kts | 102° |
| 2026-05-04 16:12 | -12.79280 | -75.76066 | 29283 ft | 417 kts | 101° |
| 2026-05-04 16:12 | -12.81302 | -75.67420 | 29250 ft | 415 kts | 101° |
| 2026-05-04 16:13 | -12.83972 | -75.55964 | 29295 ft | 414 kts | 102° |
| 2026-05-04 16:14 | -12.86650 | -75.44487 | 29319 ft | 414 kts | 102° |
| 2026-05-04 16:16 | -12.89987 | -75.30158 | 29336 ft | 413 kts | 102° |
| 2026-05-04 16:16 | -12.91970 | -75.21607 | 28568 ft | 408 kts | 102° |
| 2026-05-04 16:17 | -12.93278 | -75.15980 | 28081 ft | 404 kts | 101° |
| 2026-05-04 16:18 | -12.95202 | -75.07662 | 27297 ft | 394 kts | 101° |
| 2026-05-04 16:18 | -12.95832 | -75.04929 | 26920 ft | 393 kts | 102° |
| 2026-05-04 16:19 | -12.97706 | -74.96826 | 25721 ft | 387 kts | 103° |
| 2026-05-04 16:19 | -12.98937 | -74.91512 | 24894 ft | 384 kts | 103° |
| 2026-05-04 16:20 | -13.00771 | -74.83559 | 23554 ft | 380 kts | 103° |
| 2026-05-04 16:20 | -13.01966 | -74.78331 | 22678 ft | 373 kts | 102° |
| 2026-05-04 16:21 | -13.03717 | -74.70684 | 21383 ft | 362 kts | 102° |
| 2026-05-04 16:22 | -13.04861 | -74.65726 | 20529 ft | 352 kts | 102° |
| 2026-05-04 16:22 | -13.06525 | -74.58489 | 19278 ft | 343 kts | 102° |
| 2026-05-04 16:23 | -13.08160 | -74.51346 | 17564 ft | 349 kts | 102° |
| 2026-05-04 16:24 | -13.10335 | -74.41850 | 15950 ft | 334 kts | 102° |
| 2026-05-04 16:25 | -13.11392 | -74.37240 | 15308 ft | 333 kts | 102° |
| 2026-05-04 16:26 | -13.13410 | -74.28388 | 13648 ft | 306 kts | 103° |
| 2026-05-04 16:26 | -13.14798 | -74.22271 | 12594 ft | 282 kts | 102° |
| 2026-05-04 16:27 | -13.15686 | -74.18429 | 11883 ft | 268 kts | 104° |
| 2026-05-04 16:28 | -13.19386 | -74.15926 | 11925 ft | 207 kts | 203° |
| 2026-05-04 16:28 | -13.22494 | -74.18489 | 12059 ft | 175 kts | 247° |
| 2026-05-04 16:29 | -13.20287 | -74.22092 | 10715 ft | 161 kts | 336° |
| 2026-05-04 16:30 | -13.17229 | -74.21203 | 9251 ft | 153 kts | 23° |
| 2026-05-04 16:31 | -13.15561 | -74.20476 | 9014 ft | 63 kts | 22° |
| 2026-05-04 16:31 | -13.15382 | -74.20516 | 9019 ft | 4 kts | 9° |
| 2026-05-04 16:32 | -13.15317 | -74.20520 | 9019 ft | 0 kts | 330° |